createdAt,value
2022-12-31T00:01:57.492Z,5.08
2022-12-31T00:05:19.298Z,5.23
2022-12-31T00:08:22.719Z,5.33
2022-12-31T00:11:28.022Z,5.28
2022-12-31T00:14:39.095Z,5.40
2022-12-31T00:17:55.638Z,5.15
2022-12-31T00:21:20.425Z,5.36
2022-12-31T00:24:36.742Z,5.33
2022-12-31T00:27:59.543Z,5.22
2022-12-31T00:31:29.309Z,5.32
2022-12-31T00:34:32.388Z,5.15
2022-12-31T00:37:39.007Z,5.01
2022-12-31T00:40:47.187Z,5.13
2022-12-31T00:43:58.072Z,5.08
2022-12-31T00:47:24.329Z,5.23
2022-12-31T00:50:47.363Z,5.23
2022-12-31T00:54:12.351Z,5.10
2022-12-31T00:57:32.431Z,5.16
2022-12-31T01:00:52.328Z,5.19
2022-12-31T01:04:20.346Z,5.22
2022-12-31T01:07:33.496Z,5.19
2022-12-31T01:11:13.846Z,5.35
2022-12-31T01:14:20.840Z,5.42
2022-12-31T01:17:40.283Z,5.61
2022-12-31T01:21:00.383Z,5.57
2022-12-31T01:24:22.216Z,5.40
2022-12-31T01:27:33.497Z,5.51
2022-12-31T01:30:39.900Z,5.57
2022-12-31T01:33:55.165Z,5.34
2022-12-31T01:36:58.155Z,5.36
2022-12-31T01:40:01.260Z,5.34
2022-12-31T01:43:26.205Z,5.40
2022-12-31T01:46:59.300Z,5.62
2022-12-31T01:50:16.166Z,5.68
2022-12-31T01:53:19.540Z,5.57
2022-12-31T01:56:26.257Z,5.72
2022-12-31T01:59:33.459Z,5.74
2022-12-31T02:02:36.625Z,5.74
2022-12-31T02:06:07.124Z,5.82
2022-12-31T02:09:20.273Z,5.60
2022-12-31T02:12:40.961Z,5.63
2022-12-31T02:16:07.140Z,5.63
2022-12-31T02:19:39.189Z,5.69
2022-12-31T02:22:54.592Z,5.79
2022-12-31T02:26:44.234Z,5.85
2022-12-31T02:30:15.153Z,5.74
2022-12-31T02:33:47.678Z,5.75
2022-12-31T02:37:13.031Z,5.80
2022-12-31T02:40:32.095Z,5.82
2022-12-31T02:43:53.984Z,5.74
2022-12-31T02:47:23.746Z,5.75
2022-12-31T02:50:55.706Z,5.77
2022-12-31T02:54:19.477Z,5.82
2022-12-31T02:57:25.965Z,5.82
2022-12-31T03:01:09.291Z,5.65
2022-12-31T03:04:32.768Z,5.68
2022-12-31T03:07:41.504Z,5.64
2022-12-31T03:10:57.073Z,5.83
2022-12-31T03:14:17.747Z,5.83
2022-12-31T03:17:38.588Z,5.87
2022-12-31T03:21:15.984Z,5.82
2022-12-31T03:24:43.187Z,5.82
2022-12-31T03:27:47.362Z,5.90
2022-12-31T03:31:06.058Z,5.89
2022-12-31T03:34:18.522Z,5.91
2022-12-31T03:37:33.944Z,5.82
2022-12-31T03:41:01.935Z,5.88
2022-12-31T03:44:24.410Z,5.95
2022-12-31T03:47:46.861Z,5.90
2022-12-31T03:51:21.858Z,5.79
2022-12-31T03:54:46.716Z,5.58
2022-12-31T03:58:09.688Z,5.76
2022-12-31T04:01:30.826Z,5.75
2022-12-31T04:04:52.739Z,5.70
2022-12-31T04:08:03.133Z,5.71
2022-12-31T04:11:25.881Z,5.70
2022-12-31T04:14:59.790Z,5.76
2022-12-31T04:18:21.830Z,5.65
2022-12-31T04:21:37.951Z,5.73
2022-12-31T04:24:59.775Z,5.79
2022-12-31T04:28:28.782Z,5.74
2022-12-31T04:31:52.679Z,5.53
2022-12-31T04:35:13.683Z,5.54
2022-12-31T04:38:36.947Z,5.57
2022-12-31T04:41:58.051Z,5.49
2022-12-31T04:45:10.638Z,5.63
2022-12-31T04:48:33.639Z,5.53
2022-12-31T04:52:04.897Z,5.49
2022-12-31T04:55:28.660Z,5.59
2022-12-31T04:58:50.859Z,5.52
2022-12-31T05:02:10.787Z,5.44
2022-12-31T05:05:33.660Z,5.42
2022-12-31T05:08:51.779Z,5.42
2022-12-31T05:12:11.628Z,5.42
2022-12-31T05:15:31.780Z,5.39
2022-12-31T05:18:39.306Z,5.44
2022-12-31T05:21:42.847Z,5.40
2022-12-31T05:24:58.635Z,5.36
2022-12-31T05:28:19.779Z,5.47
2022-12-31T05:31:35.654Z,5.48
2022-12-31T05:34:52.147Z,5.53
2022-12-31T05:38:21.649Z,5.47
2022-12-31T05:41:50.188Z,5.54
2022-12-31T05:44:59.109Z,5.43
2022-12-31T05:48:21.551Z,5.48
2022-12-31T05:51:58.602Z,5.52
2022-12-31T05:55:19.709Z,5.43
2022-12-31T05:58:36.665Z,5.54
2022-12-31T06:01:54.104Z,5.63
2022-12-31T06:05:26.131Z,5.61
2022-12-31T06:08:52.599Z,5.61
2022-12-31T06:12:04.290Z,5.61
2022-12-31T06:15:49.435Z,5.66
2022-12-31T06:19:50.174Z,5.64
2022-12-31T06:22:57.173Z,5.75
2022-12-31T06:26:05.374Z,5.79
2022-12-31T06:29:12.807Z,5.78
2022-12-31T06:32:30.834Z,5.77
2022-12-31T06:35:52.442Z,5.52
2022-12-31T06:38:59.438Z,5.60
2022-12-31T06:42:11.268Z,5.65
2022-12-31T06:45:15.556Z,5.77
2022-12-31T06:48:44.068Z,5.85
2022-12-31T06:52:08.641Z,5.82
2022-12-31T06:55:28.538Z,5.75
2022-12-31T06:58:40.295Z,5.74
2022-12-31T07:06:28.064Z,5.86
2022-12-31T07:10:53.045Z,5.82
2022-12-31T07:14:55.774Z,5.86
2022-12-31T07:18:29.909Z,5.91
2022-12-31T07:21:41.502Z,5.97
2022-12-31T07:24:52.082Z,5.91
2022-12-31T07:28:33.456Z,5.92
2022-12-31T07:32:42.754Z,5.95
2022-12-31T07:36:27.799Z,5.93
2022-12-31T07:40:20.479Z,6.00
2022-12-31T07:43:50.026Z,5.83
2022-12-31T07:50:44.223Z,5.96
2022-12-31T07:54:15.514Z,6.11
2022-12-31T07:57:44.185Z,6.07
2022-12-31T08:01:32.319Z,6.22
2022-12-31T08:05:00.705Z,6.07
2022-12-31T08:09:16.177Z,6.21
2022-12-31T08:12:40.831Z,6.42
2022-12-31T08:20:05.501Z,6.26
2022-12-31T08:24:12.882Z,6.27
2022-12-31T08:28:17.349Z,6.09
2022-12-31T08:31:58.310Z,6.18
2022-12-31T08:35:39.320Z,6.11
2022-12-31T08:38:57.702Z,6.24
2022-12-31T08:43:07.587Z,6.52
2022-12-31T08:46:47.327Z,6.30
2022-12-31T08:49:57.589Z,6.06
2022-12-31T08:53:47.509Z,6.15
2022-12-31T08:57:33.933Z,6.61
2022-12-31T09:01:05.212Z,6.72
2022-12-31T09:04:22.832Z,6.89
2022-12-31T09:08:22.272Z,6.63
2022-12-31T09:12:42.931Z,6.90
2022-12-31T09:20:48.777Z,6.96
2022-12-31T09:23:56.341Z,7.02
2022-12-31T09:27:27.765Z,6.96
2022-12-31T09:31:06.241Z,6.95
2022-12-31T09:34:46.833Z,6.93
2022-12-31T09:38:25.185Z,7.00
2022-12-31T09:42:17.107Z,7.06
2022-12-31T09:45:52.334Z,7.01
2022-12-31T09:49:40.848Z,6.90
2022-12-31T09:53:10.657Z,7.07
2022-12-31T09:56:34.005Z,7.16
2022-12-31T10:00:12.340Z,7.23
2022-12-31T10:03:27.928Z,7.29
2022-12-31T10:07:00.663Z,7.27
2022-12-31T10:10:31.081Z,7.43
2022-12-31T10:14:03.154Z,7.55
2022-12-31T10:17:28.309Z,7.52
2022-12-31T10:20:48.181Z,7.43
2022-12-31T10:24:23.400Z,7.81
2022-12-31T10:27:55.115Z,7.79
2022-12-31T10:31:05.010Z,7.92
2022-12-31T10:34:32.060Z,7.73
2022-12-31T10:38:02.376Z,7.66
2022-12-31T10:41:24.765Z,7.67
2022-12-31T10:45:24.039Z,8.11
2022-12-31T10:49:02.595Z,8.02
2022-12-31T10:52:20.231Z,7.90
2022-12-31T10:55:52.119Z,8.10
2022-12-31T11:00:13.529Z,8.25
2022-12-31T11:04:15.220Z,7.96
2022-12-31T11:07:58.759Z,7.85
2022-12-31T11:12:03.832Z,8.14
2022-12-31T11:15:54.186Z,8.40
2022-12-31T11:19:36.415Z,8.12
2022-12-31T11:23:09.835Z,7.89
2022-12-31T11:26:37.707Z,7.84
2022-12-31T11:30:15.522Z,7.86
2022-12-31T11:34:00.191Z,8.02
2022-12-31T11:37:29.306Z,8.27
2022-12-31T11:40:54.178Z,8.19
2022-12-31T11:44:25.809Z,8.33
2022-12-31T11:48:34.180Z,8.50
2022-12-31T11:52:09.977Z,8.32
2022-12-31T11:55:46.142Z,8.39
2022-12-31T11:58:56.752Z,8.54
2022-12-31T12:03:08.907Z,8.67
2022-12-31T12:06:46.367Z,8.92
2022-12-31T12:09:57.926Z,8.99
2022-12-31T12:13:31.519Z,8.94
2022-12-31T12:16:46.970Z,9.05
2022-12-31T12:20:01.762Z,8.83
2022-12-31T12:23:18.437Z,9.03
2022-12-31T12:26:42.831Z,9.09
2022-12-31T12:30:35.405Z,9.28
2022-12-31T12:42:23.622Z,8.73
2022-12-31T12:46:15.648Z,8.80
2022-12-31T12:49:40.857Z,8.75
2022-12-31T12:53:37.265Z,8.66
2022-12-31T12:56:57.656Z,9.00
2022-12-31T13:00:45.873Z,8.83
2022-12-31T13:04:35.819Z,9.10
2022-12-31T13:08:38.932Z,8.91
2022-12-31T13:12:25.868Z,8.99
2022-12-31T13:22:27.791Z,8.83
2022-12-31T13:26:27.489Z,9.14
2022-12-31T13:30:07.551Z,8.94
2022-12-31T13:33:26.800Z,8.62
2022-12-31T13:37:07.451Z,8.64
2022-12-31T13:40:26.293Z,8.46
2022-12-31T13:43:59.110Z,8.33
2022-12-31T13:47:15.785Z,8.19
2022-12-31T13:50:58.073Z,8.34
2022-12-31T13:54:22.864Z,8.44
2022-12-31T13:58:57.950Z,8.64
2022-12-31T14:02:31.415Z,8.66
2022-12-31T14:06:35.534Z,8.59
2022-12-31T14:09:43.658Z,8.53
2022-12-31T14:13:57.294Z,8.82
2022-12-31T14:17:36.734Z,8.80
2022-12-31T14:21:27.037Z,8.97
2022-12-31T14:24:51.648Z,8.68
2022-12-31T14:28:13.985Z,8.83
2022-12-31T14:31:49.278Z,8.88
2022-12-31T14:35:34.067Z,9.05
2022-12-31T14:38:53.359Z,8.78
2022-12-31T14:42:23.518Z,8.68
2022-12-31T14:45:38.771Z,8.69
2022-12-31T14:48:58.714Z,8.86
2022-12-31T14:52:25.266Z,8.72
2022-12-31T14:55:43.886Z,8.78
2022-12-31T14:59:01.480Z,8.80
2022-12-31T15:02:27.142Z,8.72
2022-12-31T15:05:41.687Z,8.77
2022-12-31T15:09:08.633Z,8.85
2022-12-31T15:12:34.497Z,8.68
2022-12-31T15:16:15.143Z,8.64
2022-12-31T15:19:37.786Z,8.68
2022-12-31T15:22:52.588Z,8.88
2022-12-31T15:26:00.804Z,8.90
2022-12-31T15:29:08.772Z,8.86
2022-12-31T15:32:32.357Z,8.63
2022-12-31T15:35:51.563Z,8.68
2022-12-31T15:39:35.497Z,8.48
2022-12-31T15:42:55.786Z,8.71
2022-12-31T15:46:10.091Z,8.84
2022-12-31T15:49:23.636Z,8.83
2022-12-31T15:53:06.319Z,8.93
2022-12-31T15:56:48.833Z,8.89
2022-12-31T15:59:59.690Z,8.79
2022-12-31T16:03:02.836Z,8.74
2022-12-31T16:06:15.126Z,8.78
2022-12-31T16:09:30.620Z,8.84
2022-12-31T16:12:45.510Z,8.86
2022-12-31T16:16:36.350Z,8.85
2022-12-31T16:19:44.885Z,8.83
2022-12-31T16:22:54.942Z,8.83
2022-12-31T16:26:02.645Z,8.71
2022-12-31T16:29:24.384Z,8.52
2022-12-31T16:32:35.700Z,8.46
2022-12-31T16:35:44.806Z,8.44
2022-12-31T16:39:27.448Z,8.52
2022-12-31T16:42:31.210Z,8.42
2022-12-31T16:45:46.101Z,8.30
2022-12-31T16:49:01.925Z,8.20
2022-12-31T16:52:30.816Z,8.16
2022-12-31T16:55:46.631Z,8.10
2022-12-31T16:59:15.049Z,8.12
2022-12-31T17:03:19.246Z,8.07
2022-12-31T17:06:18.788Z,8.01
2022-12-31T17:09:36.845Z,8.04
2022-12-31T17:13:29.551Z,7.97
2022-12-31T17:16:36.736Z,8.03
2022-12-31T17:20:00.107Z,8.02
2022-12-31T17:23:33.250Z,8.12
2022-12-31T17:34:36.194Z,7.82
2022-12-31T17:38:43.354Z,7.82
2022-12-31T17:43:01.095Z,7.81
2022-12-31T17:46:42.759Z,7.81
2022-12-31T17:50:36.027Z,7.91
2022-12-31T17:53:59.053Z,7.88
2022-12-31T17:57:37.364Z,7.76
2022-12-31T18:00:58.331Z,7.70
2022-12-31T18:04:13.058Z,7.50
2022-12-31T18:07:34.337Z,7.32
2022-12-31T18:10:56.519Z,7.41
2022-12-31T18:14:00.327Z,7.43
2022-12-31T18:17:16.465Z,7.34
2022-12-31T18:20:20.453Z,7.21
2022-12-31T18:26:59.239Z,7.19
2022-12-31T18:30:08.156Z,7.14
2022-12-31T18:33:29.755Z,7.20
2022-12-31T18:36:45.959Z,7.18
2022-12-31T18:40:10.688Z,7.20
2022-12-31T18:43:19.448Z,7.24
2022-12-31T18:46:27.832Z,7.21
2022-12-31T18:49:37.646Z,7.32
2022-12-31T18:53:00.583Z,7.34
2022-12-31T18:56:26.301Z,7.35
2022-12-31T18:59:36.195Z,7.46
2022-12-31T19:02:55.740Z,7.39
2022-12-31T19:06:25.603Z,7.41
2022-12-31T19:09:49.136Z,7.40
2022-12-31T19:13:12.489Z,7.31
2022-12-31T19:16:39.566Z,7.25
2022-12-31T19:19:42.525Z,7.34
2022-12-31T19:22:48.834Z,7.29
2022-12-31T19:26:10.756Z,7.21
2022-12-31T19:29:39.462Z,7.14
2022-12-31T19:32:59.606Z,7.10
2022-12-31T19:36:04.308Z,7.06
2022-12-31T19:39:26.645Z,6.96
2022-12-31T19:42:42.884Z,6.89
2022-12-31T19:45:47.087Z,6.90
2022-12-31T19:48:51.897Z,6.95
2022-12-31T19:52:05.665Z,6.94
2022-12-31T19:55:35.079Z,6.89
2022-12-31T19:58:50.355Z,6.86
2022-12-31T20:02:11.690Z,6.94
2022-12-31T20:05:36.838Z,7.00
2022-12-31T20:08:55.564Z,6.93
2022-12-31T20:11:58.583Z,6.91
2022-12-31T20:15:01.657Z,6.85
2022-12-31T20:18:10.860Z,6.82
2022-12-31T20:21:36.318Z,6.64
2022-12-31T20:25:02.836Z,6.64
2022-12-31T20:28:22.920Z,6.43
2022-12-31T20:31:36.120Z,6.42
2022-12-31T20:34:48.106Z,6.46
2022-12-31T20:38:00.683Z,6.46
2022-12-31T20:41:13.253Z,6.38
2022-12-31T20:44:20.068Z,6.36
2022-12-31T20:47:33.952Z,6.32
2022-12-31T20:50:54.287Z,6.31
2022-12-31T20:54:19.620Z,6.37
2022-12-31T20:57:39.540Z,6.36
2022-12-31T21:00:52.954Z,6.37
2022-12-31T21:04:05.972Z,6.31
2022-12-31T21:07:13.657Z,6.33
2022-12-31T21:10:24.027Z,6.38
2022-12-31T21:13:50.591Z,6.30
2022-12-31T21:17:16.281Z,6.27
2022-12-31T21:20:39.207Z,6.25
2022-12-31T21:23:43.167Z,6.25
2022-12-31T21:26:48.932Z,6.20
2022-12-31T21:30:18.440Z,6.20
2022-12-31T21:33:45.186Z,6.20
2022-12-31T21:37:22.179Z,6.24
2022-12-31T21:40:51.000Z,6.29
2022-12-31T21:44:15.068Z,6.16
2022-12-31T21:47:53.233Z,6.14
2022-12-31T21:51:14.959Z,6.13
2022-12-31T21:54:41.560Z,6.09
2022-12-31T21:58:23.943Z,6.03
2022-12-31T22:01:40.864Z,6.09
2022-12-31T22:05:02.293Z,6.04
2022-12-31T22:08:06.817Z,5.93
2022-12-31T22:11:16.492Z,5.94
2022-12-31T22:14:35.195Z,6.03
2022-12-31T22:17:56.990Z,6.00
2022-12-31T22:21:21.298Z,5.95
2022-12-31T22:24:24.282Z,5.89
2022-12-31T22:27:29.294Z,5.89
2022-12-31T22:30:39.911Z,5.91
2022-12-31T22:33:58.740Z,6.04
2022-12-31T22:37:27.485Z,6.08
2022-12-31T22:40:48.581Z,6.02
2022-12-31T22:44:11.003Z,5.91
2022-12-31T22:47:31.720Z,5.86
2022-12-31T22:50:41.798Z,5.78
2022-12-31T22:54:04.986Z,5.71
2022-12-31T22:57:27.935Z,5.61
2022-12-31T23:00:48.898Z,5.69
2022-12-31T23:04:11.967Z,5.66
2022-12-31T23:07:28.050Z,5.66
2022-12-31T23:11:06.589Z,5.74
2022-12-31T23:14:42.601Z,5.74
2022-12-31T23:18:08.686Z,5.68
2022-12-31T23:21:32.719Z,5.64
2022-12-31T23:24:37.996Z,5.47
2022-12-31T23:27:57.043Z,5.47
2022-12-31T23:31:14.025Z,5.44
2022-12-31T23:34:36.924Z,5.41
2022-12-31T23:38:03.961Z,5.42
2022-12-31T23:41:31.729Z,5.45
2022-12-31T23:44:41.834Z,5.46
2022-12-31T23:48:09.001Z,5.36
2022-12-31T23:51:35.733Z,5.22
2022-12-31T23:54:56.672Z,5.32
2022-12-31T23:58:19.896Z,5.40
